createdAt,value
2022-08-11T00:01:23.424Z,17.80
2022-08-11T00:04:04.794Z,17.70
2022-08-11T00:06:32.679Z,17.70
2022-08-11T00:09:00.780Z,17.70
2022-08-11T00:11:44.911Z,17.70
2022-08-11T00:14:23.720Z,17.70
2022-08-11T00:17:14.670Z,17.70
2022-08-11T00:20:12.750Z,17.60
2022-08-11T00:22:34.213Z,17.50
2022-08-11T00:25:12.310Z,17.50
2022-08-11T00:27:40.941Z,17.40
2022-08-11T00:30:09.477Z,17.20
2022-08-11T00:32:39.651Z,17.20
2022-08-11T00:35:55.473Z,17.00
2022-08-11T00:37:59.510Z,17.00
2022-08-11T00:40:37.704Z,17.10
2022-08-11T00:43:29.267Z,17.20
2022-08-11T00:46:08.317Z,17.20
2022-08-11T00:48:55.461Z,17.10
2022-08-11T00:51:59.689Z,17.20
2022-08-11T00:55:15.693Z,17.10
2022-08-11T00:58:13.501Z,17.10
2022-08-11T01:01:17.563Z,17.10
2022-08-11T01:04:00.496Z,17.10
2022-08-11T01:06:51.336Z,17.10
2022-08-11T01:09:52.264Z,17.10
2022-08-11T01:13:01.214Z,17.10
2022-08-11T01:15:57.395Z,17.00
2022-08-11T01:18:40.339Z,16.90
2022-08-11T01:21:39.767Z,16.90
2022-08-11T01:24:31.346Z,16.90
2022-08-11T01:27:25.737Z,16.90
2022-08-11T01:30:06.837Z,16.90
2022-08-11T01:32:52.337Z,16.80
2022-08-11T01:35:35.757Z,16.70
2022-08-11T01:38:25.469Z,16.80
2022-08-11T01:40:52.106Z,16.80
2022-08-11T01:43:43.578Z,16.80
2022-08-11T01:46:25.285Z,16.80
2022-08-11T01:50:08.779Z,16.70
2022-08-11T01:52:34.972Z,16.70
2022-08-11T01:55:09.473Z,16.60
2022-08-11T01:57:38.554Z,16.50
2022-08-11T02:00:12.297Z,16.40
2022-08-11T02:02:58.276Z,16.40
2022-08-11T02:05:46.316Z,16.40
2022-08-11T02:08:32.984Z,16.40
2022-08-11T02:11:37.465Z,16.40
2022-08-11T02:14:23.054Z,16.50
2022-08-11T02:16:57.964Z,16.50
2022-08-11T02:20:17.976Z,16.50
2022-08-11T02:23:58.678Z,16.50
2022-08-11T02:26:22.585Z,16.50
2022-08-11T02:29:00.071Z,16.50
2022-08-11T02:32:25.046Z,16.50
2022-08-11T02:34:44.146Z,16.40
2022-08-11T02:37:32.165Z,16.40
2022-08-11T02:39:58.780Z,16.40
2022-08-11T02:42:42.565Z,16.30
2022-08-11T02:45:12.197Z,16.30
2022-08-11T02:48:16.657Z,16.20
2022-08-11T02:51:10.356Z,16.20
2022-08-11T02:54:13.581Z,16.20
2022-08-11T02:56:54.619Z,16.20
2022-08-11T02:59:50.716Z,16.20
2022-08-11T03:02:33.727Z,16.20
2022-08-11T03:05:21.077Z,16.10
2022-08-11T03:08:19.054Z,16.10
2022-08-11T03:11:17.988Z,15.90
2022-08-11T03:14:12.439Z,15.90
2022-08-11T03:16:52.681Z,15.80
2022-08-11T03:19:46.567Z,15.80
2022-08-11T03:22:25.076Z,15.80
2022-08-11T03:25:08.727Z,15.80
2022-08-11T03:27:49.489Z,15.80
2022-08-11T03:30:42.255Z,15.80
2022-08-11T03:33:51.537Z,15.70
2022-08-11T03:36:55.717Z,15.60
2022-08-11T03:39:38.921Z,15.60
2022-08-11T03:42:50.147Z,15.50
2022-08-11T03:45:41.191Z,15.60
2022-08-11T03:48:40.314Z,15.80
2022-08-11T03:51:44.885Z,15.80
2022-08-11T03:54:24.189Z,15.80
2022-08-11T03:57:18.082Z,15.80
2022-08-11T04:00:11.200Z,15.80
2022-08-11T04:03:14.703Z,15.70
2022-08-11T04:06:21.673Z,15.60
2022-08-11T04:08:57.760Z,15.70
2022-08-11T04:11:58.660Z,15.60
2022-08-11T04:15:02.112Z,15.50
2022-08-11T04:17:34.526Z,15.50
2022-08-11T04:20:29.682Z,15.50
2022-08-11T04:24:36.171Z,15.40
2022-08-11T04:26:34.137Z,15.50
2022-08-11T04:29:25.892Z,15.60
2022-08-11T04:32:35.441Z,15.60
2022-08-11T04:35:19.255Z,15.60
2022-08-11T04:37:55.243Z,15.60
2022-08-11T04:40:43.053Z,15.50
2022-08-11T04:44:02.478Z,15.50
2022-08-11T04:46:50.822Z,15.60
2022-08-11T04:49:45.341Z,15.60
2022-08-11T04:53:12.541Z,15.50
2022-08-11T04:56:25.400Z,15.40
2022-08-11T04:59:38.896Z,15.40
2022-08-11T05:02:27.033Z,15.40
2022-08-11T05:05:12.394Z,15.40
2022-08-11T05:08:07.169Z,15.40
2022-08-11T05:10:52.462Z,15.40
2022-08-11T05:13:47.110Z,15.50
2022-08-11T05:16:36.969Z,15.80
2022-08-11T05:19:23.544Z,16.10
2022-08-11T05:22:15.360Z,16.70
2022-08-11T05:25:05.458Z,17.20
2022-08-11T05:28:23.464Z,17.60
2022-08-11T05:31:17.373Z,18.00
2022-08-11T05:34:13.246Z,18.40
2022-08-11T05:36:43.873Z,18.60
2022-08-11T05:39:45.679Z,18.70
2022-08-11T05:42:34.113Z,18.80
2022-08-11T05:46:02.427Z,18.90
2022-08-11T05:48:39.208Z,19.10
2022-08-11T05:51:30.325Z,19.40
2022-08-11T05:54:28.170Z,19.60
2022-08-11T05:57:02.352Z,19.70
2022-08-11T05:59:31.354Z,19.80
2022-08-11T06:02:03.791Z,20.10
2022-08-11T06:04:31.534Z,20.30
2022-08-11T06:07:06.341Z,20.40
2022-08-11T06:09:35.921Z,20.60
2022-08-11T06:12:23.819Z,20.50
2022-08-11T06:14:54.901Z,20.60
2022-08-11T06:17:39.001Z,20.40
2022-08-11T06:20:12.365Z,20.50
2022-08-11T06:22:56.164Z,20.70
2022-08-11T06:25:30.121Z,20.80
2022-08-11T06:27:57.478Z,20.90
2022-08-11T06:30:42.702Z,20.90
2022-08-11T06:33:19.698Z,21.00
2022-08-11T06:36:06.720Z,21.00
2022-08-11T06:39:04.976Z,21.00
2022-08-11T06:41:46.230Z,21.30
2022-08-11T06:44:13.393Z,21.40
2022-08-11T06:46:42.470Z,21.20
2022-08-11T06:49:30.350Z,21.50
2022-08-11T06:52:05.005Z,21.50
2022-08-11T06:54:44.358Z,21.60
2022-08-11T06:57:33.929Z,21.80
2022-08-11T07:00:20.333Z,21.70
2022-08-11T07:03:01.452Z,21.50
2022-08-11T07:05:53.009Z,21.60
2022-08-11T07:08:56.732Z,21.90
2022-08-11T07:12:18.246Z,22.00
2022-08-11T07:15:11.306Z,22.10
2022-08-11T07:18:13.400Z,22.00
2022-08-11T07:21:02.106Z,22.40
2022-08-11T07:23:52.886Z,22.70
2022-08-11T07:26:40.302Z,23.00
2022-08-11T07:29:09.780Z,23.40
2022-08-11T07:31:44.579Z,23.80
2022-08-11T07:34:28.129Z,24.00
2022-08-11T07:36:58.305Z,23.90
2022-08-11T07:39:28.657Z,24.10
2022-08-11T07:41:57.932Z,24.10
2022-08-11T07:44:34.822Z,24.20
2022-08-11T07:47:21.191Z,24.10
2022-08-11T07:50:07.944Z,24.10
2022-08-11T07:52:38.056Z,24.40
2022-08-11T07:55:13.416Z,24.20
2022-08-11T07:58:16.663Z,24.30
2022-08-11T08:01:17.715Z,24.10
2022-08-11T08:04:09.519Z,24.40
2022-08-11T08:06:56.406Z,24.10
2022-08-11T08:09:43.395Z,24.50
2022-08-11T08:12:29.463Z,24.60
2022-08-11T08:15:16.365Z,24.60
2022-08-11T08:18:09.071Z,24.60
2022-08-11T08:20:49.971Z,24.30
2022-08-11T08:23:32.913Z,24.70
2022-08-11T08:26:30.039Z,25.10
2022-08-11T08:29:20.811Z,25.10
2022-08-11T08:31:48.819Z,25.30
2022-08-11T08:34:16.428Z,25.50
2022-08-11T08:36:45.760Z,25.10
2022-08-11T08:39:14.226Z,24.90
2022-08-11T08:41:43.158Z,25.00
2022-08-11T08:44:37.350Z,24.70
2022-08-11T08:47:00.417Z,25.00
2022-08-11T08:49:40.368Z,25.30
2022-08-11T08:52:26.296Z,25.60
2022-08-11T08:54:58.098Z,25.90
2022-08-11T08:57:28.977Z,26.00
2022-08-11T08:59:58.189Z,25.40
2022-08-11T09:02:34.701Z,25.30
2022-08-11T09:05:11.924Z,25.70
2022-08-11T09:07:40.832Z,25.80
2022-08-11T09:10:10.745Z,25.70
2022-08-11T09:12:40.725Z,25.50
2022-08-11T09:15:10.274Z,25.10
2022-08-11T09:17:44.542Z,25.40
2022-08-11T09:20:24.740Z,25.40
2022-08-11T09:26:20.939Z,25.60
2022-08-11T09:28:49.846Z,25.70
2022-08-11T09:31:17.006Z,25.90
2022-08-11T09:33:45.751Z,26.20
2022-08-11T09:36:32.662Z,26.50
2022-08-11T09:39:19.202Z,26.30
2022-08-11T09:42:00.636Z,26.50
2022-08-11T09:44:48.950Z,26.40
2022-08-11T09:47:28.615Z,26.60
2022-08-11T09:50:00.133Z,26.80
2022-08-11T09:52:29.607Z,26.90
2022-08-11T09:54:56.619Z,26.60
2022-08-11T09:57:43.673Z,26.50
2022-08-11T10:00:14.086Z,26.60
2022-08-11T10:02:47.056Z,26.80
2022-08-11T10:05:43.201Z,27.00
2022-08-11T10:08:14.198Z,26.50
2022-08-11T10:10:41.879Z,26.40
2022-08-11T10:13:44.110Z,26.60
2022-08-11T10:16:15.613Z,26.60
2022-08-11T10:18:52.560Z,26.70
2022-08-11T10:21:40.832Z,26.60
2022-08-11T10:24:28.278Z,26.80
2022-08-11T10:26:58.354Z,27.20
2022-08-11T10:29:52.011Z,27.60
2022-08-11T10:32:57.261Z,28.10
2022-08-11T10:35:28.269Z,28.00
2022-08-11T10:38:08.849Z,28.00
2022-08-11T10:40:39.491Z,28.50
2022-08-11T10:43:10.491Z,29.10
2022-08-11T10:45:59.281Z,29.00
2022-08-11T10:48:28.600Z,29.10
2022-08-11T10:51:15.391Z,29.00
2022-08-11T10:54:11.423Z,29.00
2022-08-11T10:56:59.123Z,29.60
2022-08-11T10:59:29.914Z,29.40
2022-08-11T11:01:59.160Z,29.50
2022-08-11T11:04:50.942Z,29.30
2022-08-11T11:07:25.044Z,29.30
2022-08-11T11:09:58.182Z,29.30
2022-08-11T11:12:49.671Z,28.70
2022-08-11T11:15:38.246Z,28.50
2022-08-11T11:18:09.472Z,28.30
2022-08-11T11:20:47.081Z,28.20
2022-08-11T11:23:52.280Z,28.40
2022-08-11T11:26:47.222Z,28.10
2022-08-11T11:29:32.514Z,28.20
2022-08-11T11:32:22.378Z,28.30
2022-08-11T11:35:10.290Z,28.30
2022-08-11T11:37:38.249Z,27.90
2022-08-11T11:40:16.741Z,28.00
2022-08-11T11:42:48.259Z,28.20
2022-08-11T11:45:22.792Z,28.30
2022-08-11T11:47:54.719Z,28.30
2022-08-11T11:50:32.948Z,28.60
2022-08-11T11:53:02.034Z,28.10
2022-08-11T11:55:30.317Z,28.40
2022-08-11T11:58:18.896Z,28.60
2022-08-11T12:01:05.913Z,28.60
2022-08-11T12:03:34.056Z,28.50
2022-08-11T12:06:02.599Z,28.30
2022-08-11T12:08:29.979Z,28.40
2022-08-11T12:11:19.172Z,28.40
2022-08-11T12:13:50.588Z,28.60
2022-08-11T12:16:33.911Z,28.80
2022-08-11T12:19:11.716Z,28.70
2022-08-11T12:22:00.742Z,29.20
2022-08-11T12:24:48.115Z,29.10
2022-08-11T12:27:24.966Z,29.20
2022-08-11T12:29:55.825Z,29.30
2022-08-11T12:32:25.838Z,29.50
2022-08-11T12:34:53.721Z,29.60
2022-08-11T12:37:24.574Z,29.80
2022-08-11T12:40:43.008Z,29.80
2022-08-11T12:43:31.017Z,29.90
2022-08-11T12:46:12.313Z,29.50
2022-08-11T12:49:05.868Z,29.30
2022-08-11T12:52:08.549Z,29.20
2022-08-11T12:54:54.313Z,29.50
2022-08-11T12:57:47.195Z,29.90
2022-08-11T13:00:34.273Z,30.00
2022-08-11T13:03:20.825Z,30.30
2022-08-11T13:05:51.502Z,30.30
2022-08-11T13:08:20.082Z,30.50
2022-08-11T13:11:08.883Z,29.90
2022-08-11T13:13:54.826Z,30.10
2022-08-11T13:16:28.522Z,30.30
2022-08-11T13:18:58.776Z,29.90
2022-08-11T13:21:27.421Z,29.80
2022-08-11T13:24:03.297Z,30.00
2022-08-11T13:26:47.315Z,29.70
2022-08-11T13:29:28.733Z,29.90
2022-08-11T13:32:02.669Z,29.50
2022-08-11T13:34:34.371Z,28.60
2022-08-11T13:37:05.317Z,28.90
2022-08-11T13:39:34.542Z,29.10
2022-08-11T13:42:03.642Z,29.30
2022-08-11T13:44:35.909Z,29.30
2022-08-11T13:47:04.750Z,29.20
2022-08-11T13:49:35.518Z,29.00
2022-08-11T13:52:04.411Z,29.10
2022-08-11T13:54:33.731Z,29.40
2022-08-11T13:57:09.265Z,29.80
2022-08-11T13:59:51.740Z,29.90
2022-08-11T14:02:28.829Z,29.90
2022-08-11T14:05:07.359Z,29.80
2022-08-11T14:07:40.892Z,30.10
2022-08-11T14:10:10.779Z,30.20
2022-08-11T14:12:57.650Z,29.90
2022-08-11T14:15:34.139Z,29.90
2022-08-11T14:18:05.647Z,29.70
2022-08-11T14:20:53.960Z,29.50
2022-08-11T14:23:31.570Z,29.40
2022-08-11T14:26:18.351Z,29.20
2022-08-11T14:28:45.725Z,29.40
2022-08-11T14:31:15.474Z,29.20
2022-08-11T14:34:00.751Z,28.70
2022-08-11T14:36:40.598Z,28.70
2022-08-11T14:39:17.147Z,28.70
2022-08-11T14:42:10.548Z,29.00
2022-08-11T14:45:01.500Z,29.40
2022-08-11T14:47:30.852Z,29.40
2022-08-11T14:50:10.475Z,29.50
2022-08-11T14:52:43.244Z,29.40
2022-08-11T14:55:30.672Z,29.30
2022-08-11T14:57:58.284Z,29.40
2022-08-11T15:00:25.754Z,29.60
2022-08-11T15:03:11.863Z,29.40
2022-08-11T15:05:56.399Z,29.30
2022-08-11T15:08:48.251Z,28.90
2022-08-11T15:11:36.046Z,28.50
2022-08-11T15:14:05.955Z,28.10
2022-08-11T15:16:51.810Z,28.00
2022-08-11T15:19:21.098Z,28.00
2022-08-11T15:22:08.354Z,27.80
2022-08-11T15:24:36.716Z,27.70
2022-08-11T15:27:30.820Z,27.50
2022-08-11T15:30:33.441Z,27.20
2022-08-11T15:33:26.525Z,27.10
2022-08-11T15:36:14.323Z,26.80
2022-08-11T15:38:55.756Z,26.80
2022-08-11T15:42:00.395Z,26.80
2022-08-11T15:45:02.708Z,26.80
2022-08-11T15:47:40.796Z,26.90
2022-08-11T15:50:14.763Z,26.70
2022-08-11T15:52:56.741Z,26.80
2022-08-11T15:55:24.556Z,27.00
2022-08-11T15:58:12.446Z,27.00
2022-08-11T16:01:04.165Z,27.00
2022-08-11T16:04:09.031Z,27.10
2022-08-11T16:06:47.589Z,27.10
2022-08-11T16:09:20.236Z,27.00
2022-08-11T16:11:48.579Z,26.90
2022-08-11T16:14:36.025Z,26.70
2022-08-11T16:17:04.325Z,26.60
2022-08-11T16:19:35.638Z,26.40
2022-08-11T16:22:11.262Z,26.20
2022-08-11T16:27:05.882Z,26.30
2022-08-11T16:27:35.252Z,26.30
2022-08-11T16:30:04.856Z,26.20
2022-08-11T16:32:33.429Z,26.20
2022-08-11T16:35:50.751Z,26.10
2022-08-11T16:38:35.828Z,26.10
2022-08-11T16:41:10.965Z,26.10
2022-08-11T16:44:07.859Z,26.00
2022-08-11T16:46:54.936Z,25.90
2022-08-11T16:49:34.871Z,25.80
2022-08-11T16:52:04.186Z,25.60
2022-08-11T16:54:35.244Z,25.60
2022-08-11T16:57:25.165Z,25.50
2022-08-11T16:59:57.973Z,25.40
2022-08-11T17:02:50.735Z,25.30
2022-08-11T17:05:54.219Z,25.20
2022-08-11T17:08:56.870Z,25.20
2022-08-11T17:11:46.859Z,25.00
2022-08-11T17:14:34.708Z,25.00
2022-08-11T17:17:06.071Z,25.00
2022-08-11T17:20:38.479Z,24.90
2022-08-11T17:22:42.329Z,24.90
2022-08-11T17:25:11.129Z,24.90
2022-08-11T17:27:39.107Z,24.90
2022-08-11T17:30:07.516Z,24.80
2022-08-11T17:33:02.185Z,24.70
2022-08-11T17:35:32.567Z,24.60
2022-08-11T17:38:16.487Z,24.40
2022-08-11T17:41:07.984Z,24.40
2022-08-11T17:43:53.391Z,24.20
2022-08-11T17:46:39.785Z,24.20
2022-08-11T17:49:08.508Z,24.10
2022-08-11T17:51:55.306Z,24.10
2022-08-11T17:54:42.606Z,24.00
2022-08-11T17:57:30.166Z,24.00
2022-08-11T17:59:58.531Z,23.80
2022-08-11T18:02:52.832Z,23.80
2022-08-11T18:05:23.542Z,23.70
2022-08-11T18:08:11.527Z,23.60
2022-08-11T18:10:58.383Z,23.50
2022-08-11T18:13:47.565Z,23.40
2022-08-11T18:16:33.201Z,23.30
2022-08-11T18:19:19.254Z,23.30
2022-08-11T18:22:14.760Z,23.10
2022-08-11T18:25:07.260Z,23.10
2022-08-11T18:27:54.879Z,23.10
2022-08-11T18:30:41.741Z,23.00
2022-08-11T18:36:39.488Z,22.80
2022-08-11T18:39:28.578Z,22.70
2022-08-11T18:42:28.876Z,22.60
2022-08-11T18:45:18.981Z,22.50
2022-08-11T18:48:11.635Z,22.40
2022-08-11T18:51:29.746Z,22.30
2022-08-11T18:54:11.622Z,22.30
2022-08-11T18:56:57.204Z,22.30
2022-08-11T18:59:45.066Z,22.20
2022-08-11T19:02:48.918Z,22.20
2022-08-11T19:06:32.210Z,22.10
2022-08-11T19:08:47.349Z,22.00
2022-08-11T19:11:33.531Z,22.00
2022-08-11T19:14:21.369Z,21.90
2022-08-11T19:17:09.435Z,21.90
2022-08-11T19:19:57.040Z,21.90
2022-08-11T19:22:44.030Z,21.80
2022-08-11T19:25:30.971Z,21.80
2022-08-11T19:28:16.917Z,21.80
2022-08-11T19:31:03.384Z,21.60
2022-08-11T19:34:00.316Z,21.60
2022-08-11T19:36:56.348Z,21.50
2022-08-11T19:39:43.478Z,21.50
2022-08-11T19:42:31.246Z,21.40
2022-08-11T19:45:21.467Z,21.40
2022-08-11T19:48:30.827Z,21.30
2022-08-11T19:51:14.468Z,21.20
2022-08-11T19:54:01.161Z,21.10
2022-08-11T19:56:47.182Z,21.00
2022-08-11T19:59:33.858Z,21.00
2022-08-11T20:02:19.203Z,20.90
2022-08-11T20:05:04.448Z,21.00
2022-08-11T20:07:51.054Z,20.90
2022-08-11T20:10:39.753Z,20.90
2022-08-11T20:13:27.340Z,20.90
2022-08-11T20:16:14.276Z,20.90
2022-08-11T20:19:02.131Z,20.90
2022-08-11T20:21:48.573Z,20.90
2022-08-11T20:24:35.968Z,20.80
2022-08-11T20:27:25.620Z,20.80
2022-08-11T20:30:14.228Z,20.70
2022-08-11T20:33:00.312Z,20.70
2022-08-11T20:35:46.492Z,20.60
2022-08-11T20:38:33.670Z,20.60
2022-08-11T20:41:20.345Z,20.60
2022-08-11T20:44:09.421Z,20.50
2022-08-11T20:46:57.573Z,20.40
2022-08-11T20:49:50.564Z,20.40
2022-08-11T20:52:42.097Z,20.30
2022-08-11T20:55:46.359Z,20.20
2022-08-11T20:59:10.953Z,20.20
2022-08-11T21:01:43.827Z,20.10
2022-08-11T21:04:29.610Z,20.00
2022-08-11T21:07:15.452Z,20.00
2022-08-11T21:10:23.458Z,20.00
2022-08-11T21:13:26.011Z,19.90
2022-08-11T21:16:26.586Z,19.80
2022-08-11T21:20:01.117Z,19.80
2022-08-11T21:22:59.670Z,19.80
2022-08-11T21:26:19.382Z,19.80
2022-08-11T21:29:05.884Z,19.70
2022-08-11T21:31:53.655Z,19.70
2022-08-11T21:34:40.748Z,19.70
2022-08-11T21:37:28.528Z,19.70
2022-08-11T21:40:17.729Z,19.70
2022-08-11T21:43:05.214Z,19.70
2022-08-11T21:45:52.972Z,19.60
2022-08-11T21:48:39.395Z,19.60
2022-08-11T21:51:24.995Z,19.50
2022-08-11T21:54:11.636Z,19.40
2022-08-11T21:56:58.113Z,19.30
2022-08-11T22:00:01.044Z,19.30
2022-08-11T22:02:53.154Z,19.30
2022-08-11T22:05:40.254Z,19.20
2022-08-11T22:08:26.315Z,19.20
2022-08-11T22:11:12.752Z,19.20
2022-08-11T22:14:05.978Z,19.20
2022-08-11T22:16:53.560Z,19.10
2022-08-11T22:19:40.506Z,19.00
2022-08-11T22:22:26.828Z,18.90
2022-08-11T22:25:16.710Z,18.90
2022-08-11T22:28:04.410Z,18.80
2022-08-11T22:30:50.112Z,18.80
2022-08-11T22:33:36.335Z,18.80
2022-08-11T22:36:28.043Z,18.80
2022-08-11T22:39:17.264Z,18.80
2022-08-11T22:42:02.448Z,18.80
2022-08-11T22:44:48.016Z,18.80
2022-08-11T22:47:40.393Z,18.80
2022-08-11T22:50:26.668Z,18.70
2022-08-11T22:53:13.798Z,18.60
2022-08-11T22:56:00.103Z,18.60
2022-08-11T22:58:47.645Z,18.60
2022-08-11T23:01:35.562Z,18.60
2022-08-11T23:04:21.957Z,18.60
2022-08-11T23:07:08.451Z,18.40
2022-08-11T23:09:54.314Z,18.30
2022-08-11T23:12:40.154Z,18.30
2022-08-11T23:15:27.176Z,18.30
2022-08-11T23:18:13.296Z,18.30
2022-08-11T23:21:00.115Z,18.30
2022-08-11T23:23:47.486Z,18.20
2022-08-11T23:26:35.743Z,18.10
2022-08-11T23:29:21.982Z,18.10
2022-08-11T23:32:11.345Z,18.10
2022-08-11T23:35:04.473Z,18.10
2022-08-11T23:37:50.232Z,18.10
2022-08-11T23:40:35.724Z,18.10
2022-08-11T23:43:21.759Z,18.00
2022-08-11T23:46:06.922Z,18.10
2022-08-11T23:48:53.981Z,18.00
2022-08-11T23:51:41.433Z,18.00
2022-08-11T23:54:31.596Z,18.00
2022-08-11T23:57:20.970Z,17.90
